Aston Cantlow, United Kingdom
Current Conditions -  °F | °C
As of 5:20 AM on Monday 22 Dec 2014 (Local Time) from EGBB Reporting Station
Broken Clouds Broken Clouds  
Wind Chill: 54°   Ceiling: 1800
Heat Index: 54°   Visibility: 6mi
Dew Point: 48°   Wind: 15mph
Humidity: 82%   Direction: 250°WSW
Pressure: 29.94"   Gusts: 29mph
Location:  52.29°N, 1.78°W
Report Text: EGBB 220520Z 25013G25KT 210V280 9999 BKN018 BKN029 12/09 Q1014
Loading
Personal Weather Stations






























Interactive Weather Map New forecast layout! Learn more

10-Day Weather Forecast

Advertisements
Track Severe Weather on mobile